createdAt,value
2023-01-12T00:01:53.906Z,100322.09
2023-01-12T00:04:21.013Z,100312.78
2023-01-12T00:06:48.387Z,100314.69
2023-01-12T00:09:15.354Z,100302.19
2023-01-12T00:11:42.255Z,100301.88
2023-01-12T00:14:09.934Z,100310.09
2023-01-12T00:16:46.642Z,100311.88
2023-01-12T00:19:18.562Z,100312.50
2023-01-12T00:22:07.886Z,100313.16
2023-01-12T00:24:39.193Z,100317.34
2023-01-12T00:27:08.520Z,100321.22
2023-01-12T00:29:36.538Z,100322.34
2023-01-12T00:32:04.488Z,100325.72
2023-01-12T00:34:31.297Z,100316.06
2023-01-12T00:37:00.042Z,100312.53
2023-01-12T00:39:26.849Z,100312.22
2023-01-12T00:42:12.199Z,100325.75
2023-01-12T00:44:57.985Z,100326.06
2023-01-12T00:47:24.908Z,100328.63
2023-01-12T00:49:51.740Z,100334.44
2023-01-12T00:52:30.403Z,100326.72
2023-01-12T00:54:58.617Z,100337.97
2023-01-12T00:57:25.424Z,100331.22
2023-01-12T00:59:55.315Z,100335.56
2023-01-12T01:02:23.225Z,100337.19
2023-01-12T01:04:50.718Z,100340.41
2023-01-12T01:07:18.559Z,100339.13
2023-01-12T01:09:45.611Z,100336.88
2023-01-12T01:12:12.380Z,100339.94
2023-01-12T01:14:39.378Z,100334.81
2023-01-12T01:17:06.429Z,100339.78
2023-01-12T01:19:33.305Z,100342.88
2023-01-12T01:22:00.171Z,100332.88
2023-01-12T01:24:27.708Z,100333.69
2023-01-12T01:26:54.489Z,100334.16
2023-01-12T01:29:21.287Z,100337.56
2023-01-12T01:31:48.175Z,100329.38
2023-01-12T01:34:15.365Z,100323.25
2023-01-12T01:36:42.897Z,100331.16
2023-01-12T01:39:09.785Z,100328.75
2023-01-12T01:41:36.544Z,100336.59
2023-01-12T01:44:06.278Z,100332.56
2023-01-12T01:46:38.902Z,100331.59
2023-01-12T01:49:25.383Z,100326.47
2023-01-12T01:51:54.946Z,100336.09
2023-01-12T01:54:22.558Z,100339.16
2023-01-12T01:56:51.545Z,100328.75
2023-01-12T01:59:23.117Z,100324.56
2023-01-12T02:01:50.652Z,100321.81
2023-01-12T02:04:17.745Z,100330.00
2023-01-12T02:06:44.558Z,100327.75
2023-01-12T02:09:19.592Z,100334.03
2023-01-12T02:12:05.732Z,100331.81
2023-01-12T02:14:52.285Z,100332.25
2023-01-12T02:17:40.982Z,100337.44
2023-01-12T02:20:55.673Z,100338.38
2023-01-12T02:23:40.655Z,100343.53
2023-01-12T02:26:19.407Z,100345.44
2023-01-12T02:28:49.141Z,100343.34
2023-01-12T02:31:44.186Z,100348.47
2023-01-12T02:34:28.606Z,100349.91
2023-01-12T02:37:07.564Z,100354.22
2023-01-12T02:39:41.578Z,100357.59
2023-01-12T02:42:51.651Z,100352.56
2023-01-12T02:45:33.771Z,100354.19
2023-01-12T02:48:15.886Z,100353.69
2023-01-12T02:51:21.156Z,100361.94
2023-01-12T02:53:55.319Z,100360.72
2023-01-12T02:56:30.048Z,100360.41
2023-01-12T02:58:59.368Z,100368.59
2023-01-12T03:01:29.168Z,100361.41
2023-01-12T03:04:01.306Z,100369.41
2023-01-12T03:06:43.752Z,100371.00
2023-01-12T03:09:12.025Z,100375.19
2023-01-12T03:11:42.993Z,100380.34
2023-01-12T03:14:11.114Z,100389.03
2023-01-12T03:16:40.341Z,100379.53
2023-01-12T03:19:16.816Z,100378.00
2023-01-12T03:21:53.643Z,100378.31
2023-01-12T03:24:27.740Z,100372.16
2023-01-12T03:27:01.943Z,100384.69
2023-01-12T03:29:31.770Z,100374.53
2023-01-12T03:31:59.415Z,100373.06
2023-01-12T03:34:26.932Z,100372.41
2023-01-12T03:37:10.897Z,100371.22
2023-01-12T03:40:08.302Z,100373.22
2023-01-12T03:42:56.555Z,100367.78
2023-01-12T03:45:31.639Z,100371.06
2023-01-12T03:48:06.108Z,100368.59
2023-01-12T03:50:59.510Z,100364.25
2023-01-12T03:53:28.278Z,100356.94
2023-01-12T03:55:59.577Z,100363.34
2023-01-12T03:58:26.463Z,100357.81
2023-01-12T04:00:53.382Z,100350.03
2023-01-12T04:03:20.368Z,100358.41
2023-01-12T04:05:47.331Z,100359.50
2023-01-12T04:08:16.208Z,100356.94
2023-01-12T04:10:43.533Z,100354.44
2023-01-12T04:13:10.379Z,100362.06
2023-01-12T04:15:42.253Z,100363.09
2023-01-12T04:18:12.831Z,100367.94
2023-01-12T04:20:40.021Z,100376.66
2023-01-12T04:23:07.510Z,100375.38
2023-01-12T04:25:35.198Z,100374.59
2023-01-12T04:28:05.107Z,100386.50
2023-01-12T04:30:33.530Z,100388.25
2023-01-12T04:33:05.965Z,100384.22
2023-01-12T04:35:32.853Z,100396.59
2023-01-12T04:38:04.779Z,100398.94
2023-01-12T04:40:31.564Z,100403.13
2023-01-12T04:43:01.335Z,100407.47
2023-01-12T04:45:40.379Z,100412.06
2023-01-12T04:48:10.691Z,100411.09
2023-01-12T04:50:38.845Z,100405.16
2023-01-12T04:53:10.734Z,100411.00
2023-01-12T04:55:39.838Z,100417.63
2023-01-12T04:58:06.673Z,100415.72
2023-01-12T05:00:33.695Z,100417.63
2023-01-12T05:03:02.481Z,100415.34
2023-01-12T05:05:32.159Z,100413.38
2023-01-12T05:08:21.554Z,100425.06
2023-01-12T05:10:57.005Z,100425.47
2023-01-12T05:13:26.253Z,100421.91
2023-01-12T05:15:53.008Z,100418.69
2023-01-12T05:18:20.557Z,100413.25
2023-01-12T05:20:47.398Z,100417.44
2023-01-12T05:23:14.245Z,100425.13
2023-01-12T05:25:41.027Z,100422.16
2023-01-12T05:28:08.954Z,100424.38
2023-01-12T05:30:35.797Z,100440.75
2023-01-12T05:33:02.605Z,100436.19
2023-01-12T05:35:29.401Z,100445.53
2023-01-12T05:37:57.477Z,100440.91
2023-01-12T05:40:24.867Z,100443.31
2023-01-12T05:43:10.812Z,100440.75
2023-01-12T05:45:37.661Z,100447.63
2023-01-12T05:48:05.111Z,100454.31
2023-01-12T05:50:32.078Z,100448.94
2023-01-12T05:53:08.887Z,100449.16
2023-01-12T05:55:38.094Z,100457.88
2023-01-12T05:58:04.946Z,100455.69
2023-01-12T06:00:32.116Z,100470.22
2023-01-12T06:02:59.388Z,100459.50
2023-01-12T06:05:26.335Z,100464.75
2023-01-12T06:07:53.163Z,100473.59
2023-01-12T06:10:20.124Z,100470.22
2023-01-12T06:13:08.650Z,100464.75
2023-01-12T06:15:35.479Z,100463.53
2023-01-12T06:18:02.316Z,100466.13
2023-01-12T06:20:29.151Z,100470.00
2023-01-12T06:22:55.905Z,100467.63
2023-01-12T06:25:22.710Z,100477.50
2023-01-12T06:27:49.531Z,100487.66
2023-01-12T06:30:16.378Z,100488.13
2023-01-12T06:32:43.361Z,100487.84
2023-01-12T06:35:18.702Z,100492.66
2023-01-12T06:37:48.867Z,100493.28
2023-01-12T06:40:15.746Z,100492.03
2023-01-12T06:42:42.582Z,100495.28
2023-01-12T06:45:10.527Z,100494.69
2023-01-12T06:47:48.814Z,100502.72
2023-01-12T06:50:16.246Z,100497.88
2023-01-12T06:52:43.084Z,100499.88
2023-01-12T06:55:09.959Z,100500.53
2023-01-12T06:57:36.797Z,100497.31
2023-01-12T07:00:04.742Z,100493.13
2023-01-12T07:02:32.127Z,100495.53
2023-01-12T07:04:58.867Z,100497.66
2023-01-12T07:07:25.715Z,100498.16
2023-01-12T07:09:52.496Z,100502.19
2023-01-12T07:12:19.278Z,100501.53
2023-01-12T07:14:46.101Z,100505.56
2023-01-12T07:17:12.910Z,100504.31
2023-01-12T07:19:41.452Z,100505.81
2023-01-12T07:22:08.530Z,100494.13
2023-01-12T07:24:35.731Z,100497.81
2023-01-12T07:27:02.588Z,100503.97
2023-01-12T07:29:29.610Z,100497.25
2023-01-12T07:31:56.639Z,100497.59
2023-01-12T07:34:23.543Z,100495.88
2023-01-12T07:36:52.334Z,100494.44
2023-01-12T07:39:19.624Z,100502.34
2023-01-12T07:42:05.270Z,100500.25
2023-01-12T07:44:32.143Z,100507.69
2023-01-12T07:47:00.254Z,100511.88
2023-01-12T07:49:27.931Z,100515.09
2023-01-12T07:51:55.979Z,100512.16
2023-01-12T07:54:23.934Z,100511.03
2023-01-12T07:56:50.785Z,100512.16
2023-01-12T07:59:17.894Z,100509.72
2023-01-12T08:01:44.789Z,100503.53
2023-01-12T08:04:11.634Z,100502.75
2023-01-12T08:06:38.537Z,100503.66
2023-01-12T08:09:05.527Z,100506.25
2023-01-12T08:11:32.360Z,100510.06
2023-01-12T08:14:00.059Z,100510.69
2023-01-12T08:16:33.516Z,100513.19
2023-01-12T08:19:08.947Z,100508.66
2023-01-12T08:21:46.027Z,100509.63
2023-01-12T08:24:17.786Z,100501.63
2023-01-12T08:26:47.062Z,100504.22
2023-01-12T08:29:58.833Z,100504.91
2023-01-12T08:32:29.527Z,100510.22
2023-01-12T08:35:01.769Z,100509.94
2023-01-12T08:37:32.694Z,100507.59
2023-01-12T08:39:59.757Z,100510.34
2023-01-12T08:42:31.708Z,100519.41
2023-01-12T08:44:58.799Z,100512.16
2023-01-12T08:47:28.226Z,100519.06
2023-01-12T08:49:55.589Z,100520.97
2023-01-12T08:52:22.810Z,100524.22
2023-01-12T08:54:50.238Z,100518.09
2023-01-12T08:57:19.279Z,100520.03
2023-01-12T08:59:46.102Z,100509.88
2023-01-12T09:02:14.387Z,100514.91
2023-01-12T09:04:41.716Z,100516.03
2023-01-12T09:07:09.866Z,100516.81
2023-01-12T09:09:37.076Z,100510.38
2023-01-12T09:12:04.174Z,100512.31
2023-01-12T09:14:31.210Z,100516.50
2023-01-12T09:16:58.666Z,100503.44
2023-01-12T09:19:25.539Z,100512.28
2023-01-12T09:21:52.356Z,100505.88
2023-01-12T09:24:19.183Z,100509.88
2023-01-12T09:26:47.125Z,100496.19
2023-01-12T09:29:14.904Z,100489.88
2023-01-12T09:31:44.811Z,100492.28
2023-01-12T09:34:11.797Z,100490.06
2023-01-12T09:36:40.161Z,100490.50
2023-01-12T09:39:15.385Z,100495.06
2023-01-12T09:42:06.575Z,100483.25
2023-01-12T09:45:21.585Z,100476.66
2023-01-12T09:48:02.231Z,100478.72
2023-01-12T09:50:40.550Z,100474.38
2023-01-12T09:53:18.620Z,100475.44
2023-01-12T09:55:53.948Z,100483.81
2023-01-12T09:58:32.358Z,100495.53
2023-01-12T10:01:01.550Z,100486.88
2023-01-12T10:03:35.869Z,100487.72
2023-01-12T10:06:02.746Z,100485.91
2023-01-12T10:08:33.891Z,100479.78
2023-01-12T10:11:27.864Z,100498.75
2023-01-12T10:14:24.513Z,100487.03
2023-01-12T10:17:02.488Z,100482.34
2023-01-12T10:19:59.679Z,100472.16
2023-01-12T10:22:39.881Z,100468.97
2023-01-12T10:25:21.596Z,100464.50
2023-01-12T10:27:50.893Z,100460.09
2023-01-12T10:30:28.510Z,100462.16
2023-01-12T10:32:55.252Z,100453.56
2023-01-12T10:35:24.200Z,100450.09
2023-01-12T10:37:57.683Z,100449.50
2023-01-12T10:40:33.421Z,100438.41
2023-01-12T10:43:20.001Z,100449.50
2023-01-12T10:46:10.040Z,100441.72
2023-01-12T10:48:39.180Z,100440.59
2023-01-12T10:51:08.657Z,100445.63
2023-01-12T10:53:55.855Z,100445.63
2023-01-12T10:56:44.033Z,100438.25
2023-01-12T10:59:13.566Z,100435.84
2023-01-12T11:02:06.940Z,100433.56
2023-01-12T11:04:42.802Z,100433.81
2023-01-12T11:07:12.879Z,100433.38
2023-01-12T11:09:41.289Z,100417.13
2023-01-12T11:12:20.207Z,100417.19
2023-01-12T11:14:58.449Z,100413.69
2023-01-12T11:17:49.608Z,100409.31
2023-01-12T11:20:29.262Z,100406.09
2023-01-12T11:22:59.523Z,100407.44
2023-01-12T11:25:28.139Z,100389.66
2023-01-12T11:28:24.073Z,100381.28
2023-01-12T11:30:56.513Z,100389.03
2023-01-12T11:33:55.239Z,100374.78
2023-01-12T11:36:31.660Z,100371.06
2023-01-12T11:39:08.538Z,100374.28
2023-01-12T11:42:16.228Z,100387.84
2023-01-12T11:44:53.176Z,100382.09
2023-01-12T11:47:41.705Z,100382.91
2023-01-12T11:50:17.219Z,100375.75
2023-01-12T11:52:45.259Z,100365.41
2023-01-12T11:55:22.927Z,100362.47
2023-01-12T11:58:06.647Z,100360.53
2023-01-12T12:00:59.148Z,100373.25
2023-01-12T12:03:31.328Z,100366.78
2023-01-12T12:06:18.377Z,100369.78
2023-01-12T12:09:11.424Z,100349.59
2023-01-12T12:11:55.850Z,100356.97
2023-01-12T12:14:47.450Z,100351.34
2023-01-12T12:17:49.651Z,100351.53
2023-01-12T12:20:19.920Z,100346.75
2023-01-12T12:23:02.264Z,100349.78
2023-01-12T12:25:35.058Z,100341.38
2023-01-12T12:28:07.744Z,100344.22
2023-01-12T12:30:59.394Z,100334.47
2023-01-12T12:34:00.310Z,100320.88
2023-01-12T12:36:34.716Z,100323.34
2023-01-12T12:39:21.437Z,100326.59
2023-01-12T12:42:27.527Z,100336.38
2023-01-12T12:45:19.028Z,100317.91
2023-01-12T12:48:08.027Z,100324.47
2023-01-12T12:50:50.269Z,100310.34
2023-01-12T12:53:30.018Z,100313.94
2023-01-12T12:56:07.277Z,100308.75
2023-01-12T12:58:54.471Z,100307.34
2023-01-12T13:01:21.446Z,100319.41
2023-01-12T13:03:51.151Z,100305.97
2023-01-12T13:06:36.182Z,100302.97
2023-01-12T13:09:08.765Z,100305.00
2023-01-12T13:11:53.727Z,100298.34
2023-01-12T13:14:33.192Z,100299.56
2023-01-12T13:17:19.998Z,100295.97
2023-01-12T13:20:08.276Z,100291.50
2023-01-12T13:22:50.067Z,100289.91
2023-01-12T13:25:16.764Z,100294.91
2023-01-12T13:28:01.581Z,100293.44
2023-01-12T13:30:46.729Z,100293.91
2023-01-12T13:33:23.913Z,100291.69
2023-01-12T13:35:50.669Z,100301.94
2023-01-12T13:38:39.049Z,100298.75
2023-01-12T13:41:15.286Z,100295.75
2023-01-12T13:43:52.673Z,100296.41
2023-01-12T13:46:27.463Z,100300.59
2023-01-12T13:48:56.365Z,100294.81
2023-01-12T13:51:29.269Z,100287.44
2023-01-12T13:54:09.992Z,100292.00
2023-01-12T13:56:37.574Z,100286.81
2023-01-12T13:59:07.817Z,100289.59
2023-01-12T14:01:37.150Z,100291.63
2023-01-12T14:04:20.421Z,100292.63
2023-01-12T14:07:22.904Z,100295.97
2023-01-12T14:10:22.028Z,100290.78
2023-01-12T14:13:01.183Z,100281.63
2023-01-12T14:16:00.949Z,100282.56
2023-01-12T14:18:40.985Z,100281.53
2023-01-12T14:21:26.893Z,100283.47
2023-01-12T14:23:54.568Z,100285.88
2023-01-12T14:26:24.244Z,100283.28
2023-01-12T14:28:52.481Z,100291.78
2023-01-12T14:31:24.995Z,100277.56
2023-01-12T14:34:02.654Z,100276.50
2023-01-12T14:36:41.250Z,100277.66
2023-01-12T14:39:15.121Z,100273.94
2023-01-12T14:42:09.039Z,100277.31
2023-01-12T14:44:58.414Z,100275.03
2023-01-12T14:47:33.852Z,100290.91
2023-01-12T14:50:13.684Z,100294.00
2023-01-12T14:52:43.168Z,100291.41
2023-01-12T14:55:26.601Z,100287.53
2023-01-12T14:57:59.861Z,100293.06
2023-01-12T15:00:28.186Z,100296.56
2023-01-12T15:03:01.714Z,100292.13
2023-01-12T15:05:30.442Z,100289.72
2023-01-12T15:07:59.211Z,100279.34
2023-01-12T15:10:30.556Z,100283.13
2023-01-12T15:13:19.091Z,100284.91
2023-01-12T15:16:04.815Z,100292.88
2023-01-12T15:18:52.612Z,100297.25
2023-01-12T15:21:43.152Z,100301.00
2023-01-12T15:24:34.596Z,100289.13
2023-01-12T15:27:06.288Z,100296.19
2023-01-12T15:29:33.453Z,100287.97
2023-01-12T15:32:00.780Z,100286.91
2023-01-12T15:34:28.067Z,100295.31
2023-01-12T15:36:54.899Z,100288.53
2023-01-12T15:39:21.753Z,100293.69
2023-01-12T15:42:07.306Z,100294.69
2023-01-12T15:44:34.065Z,100302.44
2023-01-12T15:47:00.825Z,100295.50
2023-01-12T15:49:27.700Z,100299.50
2023-01-12T15:51:54.630Z,100304.31
2023-01-12T15:54:22.016Z,100310.72
2023-01-12T15:56:49.130Z,100310.72
2023-01-12T15:59:16.614Z,100312.09
2023-01-12T16:01:46.732Z,100311.84
2023-01-12T16:04:42.075Z,100304.41
2023-01-12T16:07:09.314Z,100308.97
2023-01-12T16:09:36.270Z,100307.38
2023-01-12T16:12:03.092Z,100308.09
2023-01-12T16:14:29.867Z,100313.63
2023-01-12T16:16:56.649Z,100320.00
2023-01-12T16:19:23.664Z,100317.91
2023-01-12T16:21:50.659Z,100324.88
2023-01-12T16:24:17.459Z,100314.69
2023-01-12T16:26:45.464Z,100290.88
2023-01-12T16:29:12.439Z,100307.81
2023-01-12T16:31:39.628Z,100310.59
2023-01-12T16:34:06.626Z,100308.00
2023-01-12T16:36:33.870Z,100307.59
2023-01-12T16:39:00.715Z,100300.00
2023-01-12T16:41:27.559Z,100301.97
2023-01-12T16:43:57.725Z,100305.09
2023-01-12T16:46:24.539Z,100295.25
2023-01-12T16:48:52.593Z,100296.44
2023-01-12T16:51:19.811Z,100298.72
2023-01-12T16:53:47.508Z,100292.50
2023-01-12T16:56:17.186Z,100297.56
2023-01-12T16:58:48.700Z,100293.25
2023-01-12T17:01:18.251Z,100288.97
2023-01-12T17:03:45.432Z,100274.00
2023-01-12T17:06:16.804Z,100273.72
2023-01-12T17:08:43.879Z,100260.13
2023-01-12T17:11:15.957Z,100249.53
2023-01-12T17:13:43.200Z,100250.34
2023-01-12T17:16:12.271Z,100241.31
2023-01-12T17:18:39.801Z,100228.22
2023-01-12T17:21:13.335Z,100239.00
2023-01-12T17:23:41.977Z,100230.38
2023-01-12T17:26:13.118Z,100234.66
2023-01-12T17:28:40.888Z,100223.97
2023-01-12T17:31:10.122Z,100223.41
2023-01-12T17:33:37.770Z,100228.59
2023-01-12T17:36:06.573Z,100227.28
2023-01-12T17:38:34.895Z,100224.50
2023-01-12T17:41:30.584Z,100225.31
2023-01-12T17:43:57.846Z,100228.94
2023-01-12T17:46:25.207Z,100237.19
2023-01-12T17:48:52.154Z,100228.25
2023-01-12T17:51:19.048Z,100231.81
2023-01-12T17:53:45.968Z,100238.16
2023-01-12T17:56:13.890Z,100241.72
2023-01-12T17:58:43.895Z,100243.34
2023-01-12T18:01:14.282Z,100240.59
2023-01-12T18:03:41.174Z,100241.63
2023-01-12T18:06:12.100Z,100240.63
2023-01-12T18:08:45.837Z,100245.81
2023-01-12T18:11:12.894Z,100237.78
2023-01-12T18:13:41.445Z,100245.28
2023-01-12T18:16:10.747Z,100247.63
2023-01-12T18:18:40.127Z,100247.97
2023-01-12T18:21:09.268Z,100236.03
2023-01-12T18:23:38.756Z,100233.16
2023-01-12T18:26:11.835Z,100234.56
2023-01-12T18:28:38.763Z,100232.66
2023-01-12T18:31:28.643Z,100226.06
2023-01-12T18:34:06.273Z,100226.41
2023-01-12T18:36:35.367Z,100228.88
2023-01-12T18:39:02.646Z,100235.38
2023-01-12T18:41:47.969Z,100245.00
2023-01-12T18:44:14.795Z,100232.81
2023-01-12T18:47:02.239Z,100229.97
2023-01-12T18:49:34.177Z,100230.97
2023-01-12T18:52:20.763Z,100222.91
2023-01-12T18:54:48.321Z,100231.03
2023-01-12T18:57:19.203Z,100234.41
2023-01-12T18:59:46.673Z,100234.41
2023-01-12T19:02:14.813Z,100236.00
2023-01-12T19:04:51.056Z,100237.00
2023-01-12T19:07:46.061Z,100232.63
2023-01-12T19:10:12.790Z,100236.50
2023-01-12T19:12:40.359Z,100234.19
2023-01-12T19:15:27.791Z,100237.41
2023-01-12T19:17:54.525Z,100239.00
2023-01-12T19:20:21.323Z,100236.28
2023-01-12T19:23:06.595Z,100240.31
2023-01-12T19:25:51.598Z,100245.47
2023-01-12T19:28:38.128Z,100241.09
2023-01-12T19:31:12.210Z,100237.09
2023-01-12T19:33:39.710Z,100242.41
2023-01-12T19:36:09.133Z,100249.63
2023-01-12T19:38:36.353Z,100232.00
2023-01-12T19:41:14.513Z,100236.38
2023-01-12T19:43:45.397Z,100242.84
2023-01-12T19:46:15.700Z,100240.88
2023-01-12T19:48:42.518Z,100240.88
2023-01-12T19:51:11.352Z,100232.50
2023-01-12T19:53:40.205Z,100230.06
2023-01-12T19:56:14.597Z,100232.00
2023-01-12T19:58:42.296Z,100228.94
2023-01-12T20:01:09.333Z,100225.38
2023-01-12T20:03:36.359Z,100226.94
2023-01-12T20:06:07.604Z,100224.75
2023-01-12T20:08:34.356Z,100222.16
2023-01-12T20:11:04.798Z,100220.88
2023-01-12T20:13:32.773Z,100213.47
2023-01-12T20:15:59.853Z,100215.06
2023-01-12T20:18:29.263Z,100218.63
2023-01-12T20:20:59.051Z,100207.19
2023-01-12T20:23:25.950Z,100211.56
2023-01-12T20:25:53.047Z,100207.72
2023-01-12T20:28:20.107Z,100208.09
2023-01-12T20:30:46.985Z,100206.31
2023-01-12T20:33:14.015Z,100214.22
2023-01-12T20:35:46.416Z,100210.53
2023-01-12T20:38:15.813Z,100209.28
2023-01-12T20:40:43.657Z,100213.16
2023-01-12T20:43:10.631Z,100205.47
2023-01-12T20:45:37.499Z,100214.09
2023-01-12T20:48:04.655Z,100216.69
2023-01-12T20:50:31.439Z,100208.97
2023-01-12T20:52:58.320Z,100217.44
2023-01-12T20:55:25.467Z,100214.34
2023-01-12T20:57:52.887Z,100207.75
2023-01-12T21:00:19.945Z,100215.47
2023-01-12T21:02:46.867Z,100214.69
2023-01-12T21:05:13.594Z,100220.66
2023-01-12T21:07:40.388Z,100208.38
2023-01-12T21:10:09.116Z,100209.81
2023-01-12T21:12:36.319Z,100198.69
2023-01-12T21:15:03.950Z,100204.97
2023-01-12T21:17:31.744Z,100201.13
2023-01-12T21:19:58.615Z,100195.47
2023-01-12T21:22:25.406Z,100194.84
2023-01-12T21:24:52.114Z,100203.75
2023-01-12T21:27:19.009Z,100201.63
2023-01-12T21:29:46.085Z,100198.25
2023-01-12T21:32:13.105Z,100206.97
2023-01-12T21:34:39.878Z,100199.13
2023-01-12T21:37:07.759Z,100195.25
2023-01-12T21:39:34.697Z,100199.75
2023-01-12T21:42:20.045Z,100204.66
2023-01-12T21:44:46.844Z,100203.34
2023-01-12T21:47:13.616Z,100203.84
2023-01-12T21:49:40.361Z,100209.44
2023-01-12T21:52:07.914Z,100200.72
2023-01-12T21:54:34.997Z,100205.56
2023-01-12T21:57:01.729Z,100193.63
2023-01-12T21:59:28.657Z,100205.28
2023-01-12T22:01:55.603Z,100216.75
2023-01-12T22:04:22.580Z,100210.97
2023-01-12T22:06:52.611Z,100206.00
2023-01-12T22:09:19.810Z,100197.56
2023-01-12T22:11:46.680Z,100200.47
2023-01-12T22:14:13.628Z,100179.34
2023-01-12T22:16:40.500Z,100195.94
2023-01-12T22:19:07.285Z,100194.03
2023-01-12T22:21:34.294Z,100197.56
2023-01-12T22:24:01.068Z,100207.59
2023-01-12T22:26:29.850Z,100213.19
2023-01-12T22:28:56.753Z,100202.72
2023-01-12T22:31:24.976Z,100200.31
2023-01-12T22:33:57.621Z,100209.69
2023-01-12T22:36:24.639Z,100197.94
2023-01-12T22:38:51.561Z,100203.75
2023-01-12T22:41:21.862Z,100180.72
2023-01-12T22:43:52.533Z,100185.72
2023-01-12T22:46:22.269Z,100185.53
2023-01-12T22:48:53.083Z,100192.19
2023-01-12T22:51:21.037Z,100193.59
2023-01-12T22:53:48.494Z,100193.47
2023-01-12T22:56:15.314Z,100185.09
2023-01-12T22:58:47.758Z,100190.88
2023-01-12T23:01:15.854Z,100190.59
2023-01-12T23:03:45.165Z,100189.25
2023-01-12T23:06:14.726Z,100178.84
2023-01-12T23:08:42.276Z,100189.59
2023-01-12T23:11:14.910Z,100187.97
2023-01-12T23:13:43.798Z,100190.22
2023-01-12T23:16:12.098Z,100187.13
2023-01-12T23:18:40.807Z,100178.59
2023-01-12T23:21:14.269Z,100184.75
2023-01-12T23:23:46.143Z,100178.78
2023-01-12T23:26:15.274Z,100177.81
2023-01-12T23:28:50.095Z,100177.00
2023-01-12T23:31:22.287Z,100185.31
2023-01-12T23:33:49.747Z,100188.53
2023-01-12T23:36:24.914Z,100179.06
2023-01-12T23:38:55.850Z,100180.00
2023-01-12T23:41:25.237Z,100184.38
2023-01-12T23:43:53.290Z,100195.34
2023-01-12T23:46:22.578Z,100179.28
2023-01-12T23:48:50.568Z,100190.53
2023-01-12T23:51:17.519Z,100170.91
2023-01-12T23:53:45.341Z,100175.41
2023-01-12T23:56:15.509Z,100176.72
2023-01-12T23:58:43.307Z,100173.34
